createdAt,value
2019-02-26T00:01:18.488Z,4.10
2019-02-26T00:03:46.365Z,3.90
2019-02-26T00:06:16.777Z,4.00
2019-02-26T00:08:49.230Z,4.10
2019-02-26T00:11:17.786Z,4.00
2019-02-26T00:13:48.638Z,3.90
2019-02-26T00:16:20.390Z,3.70
2019-02-26T00:18:49.209Z,3.60
2019-02-26T00:21:20.417Z,3.50
2019-02-26T00:23:51.423Z,3.60
2019-02-26T00:26:22.227Z,3.60
2019-02-26T00:28:51.533Z,3.80
2019-02-26T00:31:21.434Z,3.80
2019-02-26T00:33:51.758Z,3.90
2019-02-26T00:36:21.012Z,3.70
2019-02-26T00:38:50.292Z,3.50
2019-02-26T00:41:20.752Z,3.40
2019-02-26T00:43:53.144Z,3.40
2019-02-26T00:46:24.124Z,3.40
2019-02-26T00:48:52.847Z,3.30
2019-02-26T00:51:23.146Z,3.30
2019-02-26T00:53:55.084Z,3.20
2019-02-26T00:56:25.240Z,3.10
2019-02-26T00:58:56.131Z,3.00
2019-02-26T01:01:25.493Z,2.90
2019-02-26T01:03:54.995Z,2.90
2019-02-26T01:06:25.155Z,2.70
2019-02-26T01:08:55.486Z,2.80
2019-02-26T01:11:25.867Z,2.90
2019-02-26T01:13:57.342Z,2.90
2019-02-26T01:16:26.810Z,3.10
2019-02-26T01:18:56.119Z,3.10
2019-02-26T01:21:26.794Z,3.10
2019-02-26T01:23:57.130Z,3.10
2019-02-26T01:26:27.936Z,3.20
2019-02-26T01:28:58.542Z,3.10
2019-02-26T01:31:29.278Z,3.00
2019-02-26T01:33:59.797Z,3.00
2019-02-26T01:36:29.269Z,3.00
2019-02-26T01:38:58.567Z,3.00
2019-02-26T01:41:28.054Z,2.80
2019-02-26T01:43:57.387Z,2.90
2019-02-26T01:46:26.730Z,2.90
2019-02-26T01:48:57.556Z,2.80
2019-02-26T01:51:28.613Z,2.70
2019-02-26T01:53:58.239Z,2.80
2019-02-26T01:56:46.605Z,2.80
2019-02-26T01:59:18.964Z,2.70
2019-02-26T02:01:48.988Z,2.60
2019-02-26T02:04:19.626Z,2.60
2019-02-26T02:06:49.109Z,2.80
2019-02-26T02:09:20.417Z,2.90
2019-02-26T02:11:49.609Z,2.70
2019-02-26T02:14:18.909Z,2.80
2019-02-26T02:16:48.205Z,2.80
2019-02-26T02:19:20.049Z,2.90
2019-02-26T02:21:49.397Z,2.80
2019-02-26T02:24:21.843Z,2.80
2019-02-26T02:26:52.964Z,2.70
2019-02-26T02:29:24.038Z,2.60
2019-02-26T02:31:54.865Z,2.60
2019-02-26T02:34:27.027Z,2.50
2019-02-26T02:36:55.379Z,2.50
2019-02-26T02:39:26.544Z,2.50
2019-02-26T02:41:55.743Z,2.60
2019-02-26T02:44:25.646Z,2.70
2019-02-26T02:46:55.272Z,2.70
2019-02-26T02:49:24.550Z,2.60
2019-02-26T02:51:54.019Z,2.40
2019-02-26T02:54:24.072Z,2.40
2019-02-26T02:56:56.298Z,2.40
2019-02-26T02:59:25.891Z,2.30
2019-02-26T03:01:57.011Z,2.20
2019-02-26T03:04:29.087Z,2.30
2019-02-26T03:06:58.752Z,2.20
2019-02-26T03:09:28.362Z,2.20
2019-02-26T03:11:57.876Z,2.20
2019-02-26T03:14:27.257Z,2.20
2019-02-26T03:16:56.590Z,2.20
2019-02-26T03:19:26.041Z,2.30
2019-02-26T03:21:55.364Z,2.30
2019-02-26T03:24:26.290Z,2.30
2019-02-26T03:26:55.908Z,2.20
2019-02-26T03:29:25.238Z,2.40
2019-02-26T03:31:55.579Z,2.30
2019-02-26T03:34:25.525Z,2.20
2019-02-26T03:36:57.329Z,2.10
2019-02-26T03:39:26.714Z,2.00
2019-02-26T03:41:56.501Z,2.00
2019-02-26T03:44:29.567Z,2.10
2019-02-26T03:47:02.275Z,2.10
2019-02-26T03:49:31.723Z,2.10
2019-02-26T03:52:01.027Z,2.00
2019-02-26T03:54:30.430Z,2.10
2019-02-26T03:56:59.635Z,2.10
2019-02-26T03:59:28.972Z,2.10
2019-02-26T04:01:58.396Z,2.20
2019-02-26T04:04:30.502Z,2.30
2019-02-26T04:07:01.195Z,2.20
2019-02-26T04:09:29.929Z,2.10
2019-02-26T04:11:59.406Z,2.00
2019-02-26T04:14:30.545Z,2.00
2019-02-26T04:17:01.651Z,1.90
2019-02-26T04:19:30.745Z,1.90
2019-02-26T04:22:49.771Z,1.80
2019-02-26T04:25:57.620Z,1.80
2019-02-26T04:28:54.181Z,1.80
2019-02-26T04:32:09.542Z,1.80
2019-02-26T04:35:12.990Z,1.80
2019-02-26T04:38:06.317Z,1.90
2019-02-26T04:41:11.962Z,1.80
2019-02-26T04:44:22.914Z,1.60
2019-02-26T04:47:13.378Z,1.50
2019-02-26T04:49:43.203Z,1.50
2019-02-26T04:52:14.271Z,1.60
2019-02-26T04:54:44.169Z,1.60
2019-02-26T04:57:13.645Z,1.60
2019-02-26T04:59:43.833Z,1.60
2019-02-26T05:02:13.516Z,1.70
2019-02-26T05:04:43.108Z,1.80
2019-02-26T05:07:14.050Z,1.80
2019-02-26T05:09:43.594Z,1.70
2019-02-26T05:12:12.911Z,1.70
2019-02-26T05:14:42.169Z,1.80
2019-02-26T05:17:11.465Z,1.80
2019-02-26T05:19:43.486Z,1.90
2019-02-26T05:22:11.751Z,1.70
2019-02-26T05:24:42.404Z,1.60
2019-02-26T05:27:18.710Z,1.60
2019-02-26T05:29:48.931Z,1.40
2019-02-26T05:32:17.662Z,1.50
2019-02-26T05:34:50.173Z,1.50
2019-02-26T05:37:18.448Z,1.60
2019-02-26T05:39:49.021Z,1.60
2019-02-26T05:42:18.903Z,1.50
2019-02-26T05:44:48.101Z,1.40
2019-02-26T05:47:20.671Z,1.30
2019-02-26T05:49:48.425Z,1.30
2019-02-26T05:52:17.669Z,1.30
2019-02-26T05:54:47.174Z,1.30
2019-02-26T05:57:27.144Z,1.70
2019-02-26T05:59:47.478Z,1.90
2019-02-26T06:02:19.163Z,1.70
2019-02-26T06:04:48.066Z,1.60
2019-02-26T06:07:21.681Z,1.60
2019-02-26T06:09:50.942Z,1.50
2019-02-26T06:12:20.640Z,1.60
2019-02-26T06:14:51.480Z,1.60
2019-02-26T06:17:21.219Z,1.50
2019-02-26T06:19:50.897Z,1.50
2019-02-26T06:22:21.378Z,1.50
2019-02-26T06:24:54.914Z,1.60
2019-02-26T06:27:24.681Z,1.80
2019-02-26T06:29:57.207Z,1.70
2019-02-26T06:32:27.405Z,1.60
2019-02-26T06:34:55.713Z,1.50
2019-02-26T06:37:25.102Z,1.60
2019-02-26T06:39:55.645Z,1.80
2019-02-26T06:42:25.985Z,1.70
2019-02-26T06:44:55.394Z,1.80
2019-02-26T06:47:26.490Z,1.70
2019-02-26T06:49:55.733Z,1.70
2019-02-26T06:52:25.162Z,1.60
2019-02-26T06:54:57.470Z,1.60
2019-02-26T06:57:25.406Z,1.80
2019-02-26T06:59:56.330Z,1.80
2019-02-26T07:02:28.955Z,1.90
2019-02-26T07:04:56.945Z,1.80
2019-02-26T07:07:26.451Z,1.80
2019-02-26T07:09:58.118Z,1.80
2019-02-26T07:12:27.003Z,1.90
2019-02-26T07:14:58.215Z,1.90
2019-02-26T07:17:31.913Z,2.00
2019-02-26T07:20:00.167Z,2.40
2019-02-26T07:22:29.222Z,2.80
2019-02-26T07:24:58.641Z,3.40
2019-02-26T07:27:28.881Z,3.80
2019-02-26T07:29:59.065Z,4.00
2019-02-26T07:32:28.327Z,4.30
2019-02-26T07:34:58.201Z,4.60
2019-02-26T07:37:28.621Z,4.90
2019-02-26T07:39:58.793Z,5.30
2019-02-26T07:42:28.080Z,5.50
2019-02-26T07:44:58.631Z,5.70
2019-02-26T07:47:29.396Z,5.90
2019-02-26T07:50:01.065Z,6.30
2019-02-26T07:52:31.258Z,6.70
2019-02-26T07:55:00.945Z,7.00
2019-02-26T07:57:30.194Z,7.40
2019-02-26T07:59:59.578Z,7.80
2019-02-26T08:02:30.620Z,8.20
2019-02-26T08:04:59.913Z,8.50
2019-02-26T08:07:30.824Z,8.70
2019-02-26T08:10:00.271Z,8.90
2019-02-26T08:12:30.966Z,9.10
2019-02-26T08:15:02.399Z,9.30
2019-02-26T08:17:31.727Z,9.40
2019-02-26T08:20:01.730Z,9.50
2019-02-26T08:22:34.116Z,9.50
2019-02-26T08:25:03.018Z,9.50
2019-02-26T08:27:33.866Z,9.60
2019-02-26T08:30:03.701Z,9.70
2019-02-26T08:32:32.971Z,9.80
2019-02-26T08:35:02.237Z,10.00
2019-02-26T08:37:31.539Z,10.30
2019-02-26T08:40:00.786Z,10.60
2019-02-26T08:42:30.081Z,11.00
2019-02-26T08:44:59.562Z,11.20
2019-02-26T08:47:28.735Z,11.40
2019-02-26T08:49:58.867Z,11.40
2019-02-26T08:52:29.491Z,11.40
2019-02-26T08:54:59.253Z,11.40
2019-02-26T08:57:28.742Z,11.40
2019-02-26T08:59:58.414Z,11.40
2019-02-26T09:02:27.834Z,11.50
2019-02-26T09:04:59.119Z,11.50
2019-02-26T09:07:28.441Z,11.70
2019-02-26T09:09:58.126Z,11.80
2019-02-26T09:12:28.022Z,12.00
2019-02-26T09:14:57.783Z,12.10
2019-02-26T09:17:29.888Z,12.50
2019-02-26T09:20:08.380Z,12.80
2019-02-26T09:22:29.429Z,13.20
2019-02-26T09:24:59.853Z,13.50
2019-02-26T09:27:31.958Z,13.70
2019-02-26T09:30:00.827Z,14.00
2019-02-26T09:32:30.267Z,14.30
2019-02-26T09:35:01.469Z,14.60
2019-02-26T09:37:30.770Z,14.80
2019-02-26T09:40:02.814Z,15.00
2019-02-26T09:42:32.473Z,15.30
2019-02-26T09:45:01.972Z,15.50
2019-02-26T09:47:33.393Z,15.60
2019-02-26T09:50:02.378Z,15.80
2019-02-26T09:52:32.719Z,16.10
2019-02-26T09:55:02.412Z,16.30
2019-02-26T09:57:31.863Z,16.70
2019-02-26T10:00:03.241Z,16.90
2019-02-26T10:02:32.158Z,17.00
2019-02-26T10:05:01.418Z,17.00
2019-02-26T10:07:33.106Z,17.10
2019-02-26T10:10:05.445Z,17.10
2019-02-26T10:12:34.540Z,17.10
2019-02-26T10:15:05.317Z,17.30
2019-02-26T10:17:37.103Z,17.30
2019-02-26T10:20:09.479Z,17.50
2019-02-26T10:22:40.433Z,17.70
2019-02-26T10:25:11.102Z,17.80
2019-02-26T10:27:41.368Z,17.70
2019-02-26T10:30:16.085Z,17.80
2019-02-26T10:32:46.863Z,17.90
2019-02-26T10:35:19.479Z,18.20
2019-02-26T10:37:53.312Z,18.30
2019-02-26T10:40:22.870Z,18.50
2019-02-26T10:42:52.562Z,18.20
2019-02-26T10:45:25.770Z,17.90
2019-02-26T10:47:56.688Z,18.10
2019-02-26T10:50:31.050Z,18.40
2019-02-26T10:53:01.743Z,18.60
2019-02-26T10:55:33.870Z,18.80
2019-02-26T10:58:04.127Z,19.00
2019-02-26T11:00:34.120Z,19.20
2019-02-26T11:03:01.627Z,19.30
2019-02-26T11:05:30.905Z,19.40
2019-02-26T11:08:05.210Z,19.10
2019-02-26T11:10:32.019Z,19.00
2019-02-26T11:13:01.439Z,18.90
2019-02-26T11:15:33.399Z,19.10
2019-02-26T11:18:01.766Z,19.20
2019-02-26T11:20:34.084Z,19.50
2019-02-26T11:23:04.122Z,19.70
2019-02-26T11:25:37.017Z,19.80
2019-02-26T11:28:07.458Z,19.90
2019-02-26T11:30:37.772Z,20.10
2019-02-26T11:33:08.614Z,20.00
2019-02-26T11:35:39.731Z,20.10
2019-02-26T11:38:09.781Z,20.20
2019-02-26T11:40:40.119Z,20.30
2019-02-26T11:43:13.829Z,20.40
2019-02-26T11:45:41.994Z,20.40
2019-02-26T11:48:11.511Z,20.30
2019-02-26T11:50:44.253Z,20.50
2019-02-26T11:53:11.970Z,20.60
2019-02-26T11:55:41.535Z,20.60
2019-02-26T11:58:15.391Z,20.60
2019-02-26T12:00:49.717Z,20.50
2019-02-26T12:03:20.617Z,20.30
2019-02-26T12:05:49.301Z,20.20
2019-02-26T12:08:20.045Z,20.40
2019-02-26T12:10:52.201Z,20.60
2019-02-26T12:13:22.362Z,20.80
2019-02-26T12:15:52.387Z,21.10
2019-02-26T12:18:22.481Z,21.30
2019-02-26T12:20:51.965Z,21.40
2019-02-26T12:23:26.228Z,21.40
2019-02-26T12:25:58.217Z,21.40
2019-02-26T12:28:28.294Z,21.50
2019-02-26T12:30:58.597Z,21.50
2019-02-26T12:33:32.304Z,21.40
2019-02-26T12:36:02.035Z,21.00
2019-02-26T12:38:31.036Z,20.40
2019-02-26T12:41:00.917Z,19.80
2019-02-26T12:43:32.984Z,19.40
2019-02-26T12:46:04.553Z,19.10
2019-02-26T12:48:35.168Z,18.80
2019-02-26T12:51:04.759Z,18.60
2019-02-26T12:53:49.004Z,18.40
2019-02-26T12:56:15.758Z,18.20
2019-02-26T12:58:47.985Z,18.10
2019-02-26T13:01:16.657Z,17.90
2019-02-26T13:03:50.076Z,17.80
2019-02-26T13:06:18.802Z,17.60
2019-02-26T13:08:50.543Z,17.50
2019-02-26T13:11:21.030Z,17.40
2019-02-26T13:13:52.589Z,17.30
2019-02-26T13:16:21.082Z,17.10
2019-02-26T13:21:21.614Z,16.90
2019-02-26T13:23:51.270Z,16.80
2019-02-26T13:26:22.554Z,16.70
2019-02-26T13:31:22.923Z,16.60
2019-02-26T13:33:52.755Z,16.50
2019-02-26T13:36:22.944Z,16.50
2019-02-26T13:38:52.196Z,16.40
2019-02-26T13:41:29.591Z,16.30
2019-02-26T13:43:52.512Z,16.20
2019-02-26T13:46:22.090Z,16.20
2019-02-26T13:48:51.361Z,16.10
2019-02-26T13:51:20.853Z,16.00
2019-02-26T13:53:50.108Z,15.90
2019-02-26T13:56:19.508Z,15.90
2019-02-26T13:58:48.839Z,15.80
2019-02-26T14:01:18.197Z,15.80
2019-02-26T14:03:47.480Z,15.70
2019-02-26T14:06:17.071Z,15.70
2019-02-26T14:08:46.602Z,15.60
2019-02-26T14:11:15.877Z,15.60
2019-02-26T14:13:45.454Z,15.50
2019-02-26T14:16:14.751Z,15.60
2019-02-26T14:18:44.065Z,15.50
2019-02-26T14:21:13.917Z,15.50
2019-02-26T14:23:43.265Z,15.40
2019-02-26T14:26:12.593Z,15.40
2019-02-26T14:28:41.919Z,15.40
2019-02-26T14:31:11.216Z,15.30
2019-02-26T14:33:40.494Z,15.30
2019-02-26T14:36:09.750Z,15.30
2019-02-26T14:38:39.052Z,15.30
2019-02-26T14:41:08.235Z,15.40
2019-02-26T14:43:37.699Z,15.50
2019-02-26T14:46:07.018Z,15.50
2019-02-26T14:48:36.412Z,15.50
2019-02-26T14:51:06.250Z,15.40
2019-02-26T14:53:35.615Z,15.30
2019-02-26T14:56:05.364Z,15.20
2019-02-26T14:58:34.731Z,15.20
2019-02-26T15:01:04.352Z,15.10
2019-02-26T15:03:33.653Z,15.10
2019-02-26T15:06:03.045Z,15.00
2019-02-26T15:08:32.586Z,14.90
2019-02-26T15:11:02.217Z,14.90
2019-02-26T15:13:31.571Z,14.80
2019-02-26T15:16:01.882Z,14.80
2019-02-26T15:18:31.794Z,14.80
2019-02-26T15:21:01.139Z,14.80
2019-02-26T15:23:30.507Z,14.70
2019-02-26T15:25:59.860Z,14.80
2019-02-26T15:28:29.408Z,14.80
2019-02-26T15:31:00.845Z,14.80
2019-02-26T15:33:30.214Z,14.70
2019-02-26T15:35:59.662Z,14.60
2019-02-26T15:38:29.167Z,14.60
2019-02-26T15:40:58.611Z,14.60
2019-02-26T15:43:27.900Z,14.50
2019-02-26T15:45:57.799Z,14.50
2019-02-26T15:48:28.275Z,14.40
2019-02-26T15:50:57.755Z,14.40
2019-02-26T15:53:27.572Z,14.40
2019-02-26T15:55:59.466Z,14.50
2019-02-26T15:58:28.082Z,14.40
2019-02-26T16:01:00.198Z,14.40
2019-02-26T16:03:30.132Z,14.40
2019-02-26T16:05:59.747Z,14.30
2019-02-26T16:08:34.555Z,14.30
2019-02-26T16:11:00.311Z,14.20
2019-02-26T16:13:29.605Z,14.20
2019-02-26T16:15:59.406Z,14.10
2019-02-26T16:18:29.610Z,14.10
2019-02-26T16:20:59.659Z,14.00
2019-02-26T16:23:28.949Z,14.00
2019-02-26T16:25:58.302Z,14.00
2019-02-26T16:28:27.975Z,13.90
2019-02-26T16:30:57.619Z,13.90
2019-02-26T16:33:26.940Z,13.90
2019-02-26T16:35:57.842Z,13.80
2019-02-26T16:38:27.256Z,13.70
2019-02-26T16:40:56.517Z,13.60
2019-02-26T16:43:25.897Z,13.60
2019-02-26T16:45:55.544Z,13.60
2019-02-26T16:48:24.878Z,13.50
2019-02-26T16:50:54.159Z,13.40
2019-02-26T16:53:23.464Z,13.40
2019-02-26T16:55:52.655Z,13.30
2019-02-26T16:58:22.023Z,13.20
2019-02-26T17:00:51.341Z,13.20
2019-02-26T17:03:20.879Z,13.10
2019-02-26T17:05:50.227Z,13.00
2019-02-26T17:08:19.755Z,13.00
2019-02-26T17:10:49.482Z,12.90
2019-02-26T17:13:18.784Z,12.80
2019-02-26T17:15:48.394Z,12.70
2019-02-26T17:18:18.065Z,12.60
2019-02-26T17:20:47.441Z,12.50
2019-02-26T17:23:35.803Z,12.50
2019-02-26T17:26:07.558Z,12.50
2019-02-26T17:28:36.927Z,12.40
2019-02-26T17:31:06.285Z,12.40
2019-02-26T17:33:35.604Z,12.30
2019-02-26T17:36:04.913Z,12.20
2019-02-26T17:38:34.319Z,12.10
2019-02-26T17:41:03.615Z,12.10
2019-02-26T17:43:32.950Z,12.00
2019-02-26T17:46:03.015Z,12.00
2019-02-26T17:48:42.973Z,12.00
2019-02-26T17:51:03.744Z,11.90
2019-02-26T17:53:33.290Z,11.90
2019-02-26T17:56:02.652Z,11.90
2019-02-26T17:58:31.988Z,11.80
2019-02-26T18:01:01.287Z,11.70
2019-02-26T18:03:30.503Z,11.60
2019-02-26T18:05:59.934Z,11.30
2019-02-26T18:08:30.413Z,11.10
2019-02-26T18:10:59.757Z,10.80
2019-02-26T18:13:29.423Z,10.60
2019-02-26T18:16:00.238Z,10.40
2019-02-26T18:18:29.842Z,10.40
2019-02-26T18:20:59.172Z,10.50
2019-02-26T18:23:28.711Z,10.60
2019-02-26T18:25:58.183Z,10.70
2019-02-26T18:28:27.514Z,10.80
2019-02-26T18:30:56.853Z,10.80
2019-02-26T18:33:26.193Z,10.80
2019-02-26T18:35:55.493Z,10.80
2019-02-26T18:38:25.081Z,10.70
2019-02-26T18:40:54.447Z,10.70
2019-02-26T18:43:23.743Z,10.60
2019-02-26T18:45:53.046Z,10.60
2019-02-26T18:48:22.439Z,10.60
2019-02-26T18:50:51.780Z,10.60
2019-02-26T18:53:21.125Z,10.70
2019-02-26T18:55:50.532Z,10.70
2019-02-26T18:58:19.901Z,10.60
2019-02-26T19:00:49.388Z,10.50
2019-02-26T19:03:19.001Z,10.30
2019-02-26T19:05:48.267Z,10.10
2019-02-26T19:08:19.023Z,9.90
2019-02-26T19:10:50.867Z,9.70
2019-02-26T19:13:20.745Z,9.50
2019-02-26T19:15:50.124Z,9.30
2019-02-26T19:18:19.782Z,9.20
2019-02-26T19:20:49.640Z,9.00
2019-02-26T19:23:19.130Z,8.90
2019-02-26T19:25:48.463Z,8.80
2019-02-26T19:28:17.849Z,8.70
2019-02-26T19:30:47.262Z,8.70
2019-02-26T19:33:18.837Z,8.50
2019-02-26T19:35:47.574Z,8.30
2019-02-26T19:38:17.380Z,8.10
2019-02-26T19:40:46.654Z,8.00
2019-02-26T19:43:16.042Z,8.10
2019-02-26T19:45:45.701Z,8.10
2019-02-26T19:48:14.958Z,8.10
2019-02-26T19:50:47.858Z,8.10
2019-02-26T19:53:15.736Z,8.10
2019-02-26T19:55:48.867Z,8.10
2019-02-26T19:58:16.717Z,8.00
2019-02-26T20:00:46.008Z,7.90
2019-02-26T20:03:15.364Z,7.90
2019-02-26T20:05:46.510Z,7.80
2019-02-26T20:08:15.866Z,7.80
2019-02-26T20:10:48.027Z,7.70
2019-02-26T20:13:16.522Z,7.60
2019-02-26T20:15:46.237Z,7.50
2019-02-26T20:18:20.672Z,7.50
2019-02-26T20:20:46.652Z,7.40
2019-02-26T20:23:16.161Z,7.30
2019-02-26T20:25:46.869Z,7.30
2019-02-26T20:28:16.245Z,7.20
2019-02-26T20:30:45.803Z,7.30
2019-02-26T20:33:15.254Z,7.50
2019-02-26T20:35:45.377Z,7.60
2019-02-26T20:38:15.409Z,7.60
2019-02-26T20:40:48.696Z,7.50
2019-02-26T20:43:16.126Z,7.30
2019-02-26T20:45:45.506Z,7.10
2019-02-26T20:48:14.835Z,7.00
2019-02-26T20:50:44.582Z,7.00
2019-02-26T20:53:13.915Z,6.90
2019-02-26T20:55:52.025Z,7.00
2019-02-26T20:58:33.455Z,6.90
2019-02-26T21:01:02.835Z,6.80
2019-02-26T21:03:32.172Z,6.70
2019-02-26T21:06:01.543Z,6.50
2019-02-26T21:08:31.578Z,6.30
2019-02-26T21:11:01.069Z,6.30
2019-02-26T21:13:34.602Z,6.30
2019-02-26T21:16:01.446Z,6.30
2019-02-26T21:18:31.575Z,6.30
2019-02-26T21:21:00.894Z,6.20
2019-02-26T21:23:32.465Z,6.10
2019-02-26T21:26:01.463Z,6.10
2019-02-26T21:28:33.314Z,6.00
2019-02-26T21:31:02.238Z,6.00
2019-02-26T21:33:31.581Z,6.00
2019-02-26T21:36:00.924Z,5.90
2019-02-26T21:38:30.376Z,5.90
2019-02-26T21:40:59.999Z,5.90
2019-02-26T21:43:29.459Z,5.80
2019-02-26T21:45:58.839Z,5.80
2019-02-26T21:48:28.142Z,5.80
2019-02-26T21:50:57.727Z,5.70
2019-02-26T21:53:27.002Z,5.70
2019-02-26T21:55:56.354Z,5.60
2019-02-26T21:58:26.924Z,5.70
2019-02-26T22:00:56.841Z,5.60
2019-02-26T22:03:26.193Z,5.60
2019-02-26T22:06:04.804Z,5.60
2019-02-26T22:08:27.073Z,5.50
2019-02-26T22:10:56.351Z,5.40
2019-02-26T22:13:29.081Z,5.40
2019-02-26T22:15:56.784Z,5.50
2019-02-26T22:18:26.171Z,5.50
2019-02-26T22:20:55.487Z,5.40
2019-02-26T22:23:24.747Z,5.50
2019-02-26T22:25:55.422Z,5.50
2019-02-26T22:28:25.969Z,5.50
2019-02-26T22:30:55.926Z,5.40
2019-02-26T22:33:26.112Z,5.50
2019-02-26T22:35:57.009Z,5.30
2019-02-26T22:38:26.538Z,5.30
2019-02-26T22:40:55.892Z,5.20
2019-02-26T22:43:25.323Z,5.20
2019-02-26T22:45:54.632Z,5.10
2019-02-26T22:48:23.896Z,5.20
2019-02-26T22:50:53.192Z,5.20
2019-02-26T22:53:22.457Z,5.30
2019-02-26T22:55:51.723Z,5.20
2019-02-26T22:58:20.981Z,5.20
2019-02-26T23:01:39.180Z,5.10
2019-02-26T23:04:08.817Z,5.10
2019-02-26T23:06:38.186Z,5.00
2019-02-26T23:09:10.923Z,5.00
2019-02-26T23:11:40.715Z,4.90
2019-02-26T23:14:10.587Z,4.80
2019-02-26T23:16:40.465Z,4.70
2019-02-26T23:19:10.049Z,4.70
2019-02-26T23:21:39.784Z,4.70
2019-02-26T23:24:09.838Z,4.70
2019-02-26T23:26:42.492Z,4.60
2019-02-26T23:29:11.555Z,4.50
2019-02-26T23:31:40.855Z,4.40
2019-02-26T23:34:10.563Z,4.40
2019-02-26T23:36:40.266Z,4.50
2019-02-26T23:39:10.943Z,4.50
2019-02-26T23:41:40.432Z,4.40
2019-02-26T23:44:09.945Z,4.40
2019-02-26T23:46:39.501Z,4.50
2019-02-26T23:49:08.769Z,4.40
2019-02-26T23:51:38.078Z,4.30
2019-02-26T23:54:07.989Z,4.20
2019-02-26T23:56:37.482Z,4.10
2019-02-26T23:59:06.782Z,4.10
